Urb Solimar, Puerto Rico
Current Conditions -  °F | °C
As of 1:53 AM on Saturday 20 Dec 2014 (Local Time) from TJNR Reporting Station
Scattered Clouds Scattered Clouds  
Wind Chill: 78°   Ceiling: Unl
Heat Index: 80°   Visibility: 10mi
Dew Point: 68°   Wind: 8mph
Humidity: 71%   Direction: 50°NE
Pressure: 30.01"   Gusts: NA
Location:  18.3744°N, 65.7168°W
Report Text: TJNR 200553Z AUTO 05007KT 10SM FEW027 SCT034 26/20 A3001 RMK AO2 SLP161 T02560200 10256 20250 56013
Loading
Personal Weather Stations






























Interactive Weather Map New forecast layout! Learn more

10-Day Weather Forecast

Advertisements
Track Severe Weather on mobile